createdAt,value
2019-02-26T00:01:08.852Z,18.63
2019-02-26T00:03:38.129Z,18.63
2019-02-26T00:06:07.319Z,21.10
2019-02-26T00:08:36.593Z,21.17
2019-02-26T00:11:08.279Z,19.47
2019-02-26T00:13:36.785Z,19.77
2019-02-26T00:16:08.005Z,19.63
2019-02-26T00:18:37.013Z,19.13
2019-02-26T00:21:06.159Z,19.10
2019-02-26T00:23:35.361Z,18.57
2019-02-26T00:26:04.483Z,21.20
2019-02-26T00:28:34.248Z,18.13
2019-02-26T00:31:05.989Z,18.27
2019-02-26T00:33:35.559Z,16.43
2019-02-26T00:36:06.623Z,17.57
2019-02-26T00:38:37.524Z,17.87
2019-02-26T00:41:06.451Z,18.87
2019-02-26T00:43:36.949Z,17.90
2019-02-26T00:46:08.058Z,17.27
2019-02-26T00:48:38.878Z,17.37
2019-02-26T00:51:08.098Z,17.17
2019-02-26T00:53:37.252Z,17.60
2019-02-26T00:56:08.008Z,17.97
2019-02-26T00:58:39.198Z,17.83
2019-02-26T01:01:12.204Z,17.67
2019-02-26T01:03:40.705Z,23.87
2019-02-26T01:06:10.363Z,23.50
2019-02-26T01:08:40.254Z,20.93
2019-02-26T01:11:10.563Z,20.87
2019-02-26T01:13:39.744Z,20.27
2019-02-26T01:16:09.167Z,20.97
2019-02-26T01:18:38.366Z,20.23
2019-02-26T01:21:07.527Z,20.53
2019-02-26T01:23:36.790Z,18.77
2019-02-26T01:26:05.984Z,19.23
2019-02-26T01:28:35.173Z,18.63
2019-02-26T01:31:05.031Z,17.60
2019-02-26T01:33:35.285Z,20.50
2019-02-26T01:36:04.485Z,18.73
2019-02-26T01:38:37.427Z,20.60
2019-02-26T01:41:04.579Z,18.87
2019-02-26T01:43:33.713Z,19.53
2019-02-26T01:46:03.158Z,18.53
2019-02-26T01:48:34.347Z,18.13
2019-02-26T01:51:03.420Z,17.30
2019-02-26T01:53:32.613Z,18.50
2019-02-26T01:56:04.581Z,18.50
2019-02-26T01:58:33.648Z,17.47
2019-02-26T02:01:03.399Z,17.77
2019-02-26T02:03:32.696Z,18.33
2019-02-26T02:06:02.021Z,18.80
2019-02-26T02:08:31.327Z,19.07
2019-02-26T02:11:02.449Z,19.03
2019-02-26T02:13:33.115Z,20.30
2019-02-26T02:16:04.366Z,19.20
2019-02-26T02:18:33.186Z,20.73
2019-02-26T02:21:02.332Z,20.20
2019-02-26T02:23:31.592Z,19.43
2019-02-26T02:26:04.488Z,19.03
2019-02-26T02:28:35.470Z,17.83
2019-02-26T02:31:04.653Z,19.23
2019-02-26T02:33:35.441Z,17.37
2019-02-26T02:36:04.689Z,18.40
2019-02-26T02:38:36.488Z,18.83
2019-02-26T02:41:04.751Z,19.07
2019-02-26T02:43:33.912Z,18.60
2019-02-26T02:46:03.144Z,18.80
2019-02-26T02:48:32.317Z,19.23
2019-02-26T02:51:02.171Z,19.60
2019-02-26T02:53:32.520Z,18.17
2019-02-26T02:56:03.540Z,18.00
2019-02-26T02:58:32.618Z,18.03
2019-02-26T03:01:01.822Z,18.00
2019-02-26T03:03:31.120Z,18.23
2019-02-26T03:06:01.777Z,17.73
2019-02-26T03:08:31.172Z,16.77
2019-02-26T03:11:00.343Z,17.87
2019-02-26T03:13:29.474Z,17.00
2019-02-26T03:16:01.058Z,17.10
2019-02-26T03:18:29.581Z,17.03
2019-02-26T03:20:59.947Z,17.73
2019-02-26T03:23:31.399Z,16.43
2019-02-26T03:26:00.922Z,17.40
2019-02-26T03:28:34.823Z,18.43
2019-02-26T03:31:01.574Z,17.50
2019-02-26T03:33:30.769Z,18.20
2019-02-26T03:35:59.983Z,16.87
2019-02-26T03:38:29.133Z,17.33
2019-02-26T03:41:01.113Z,18.17
2019-02-26T03:43:31.439Z,17.50
2019-02-26T03:46:00.438Z,16.27
2019-02-26T03:48:29.627Z,17.53
2019-02-26T03:51:01.309Z,19.37
2019-02-26T03:53:31.339Z,18.00
2019-02-26T03:56:04.591Z,17.63
2019-02-26T03:58:33.927Z,18.00
2019-02-26T04:01:07.344Z,18.37
2019-02-26T04:03:35.271Z,17.73
2019-02-26T04:06:08.780Z,17.97
2019-02-26T04:08:36.171Z,18.27
2019-02-26T04:11:05.337Z,18.47
2019-02-26T04:13:34.491Z,18.93
2019-02-26T04:16:04.557Z,17.77
2019-02-26T04:18:34.793Z,18.30
2019-02-26T04:21:05.927Z,18.37
2019-02-26T04:23:36.072Z,17.97
2019-02-26T04:26:36.017Z,18.17
2019-02-26T04:29:20.548Z,17.37
2019-02-26T04:32:40.869Z,17.57
2019-02-26T04:35:47.703Z,17.63
2019-02-26T04:38:59.632Z,15.70
2019-02-26T04:41:38.446Z,17.83
2019-02-26T04:44:34.279Z,18.17
2019-02-26T04:47:26.921Z,18.43
2019-02-26T04:49:58.161Z,18.87
2019-02-26T04:52:29.579Z,17.60
2019-02-26T04:54:59.072Z,17.13
2019-02-26T04:57:28.268Z,17.93
2019-02-26T04:59:59.122Z,18.27
2019-02-26T05:02:28.601Z,17.83
2019-02-26T05:04:57.797Z,19.73
2019-02-26T05:07:28.336Z,19.37
2019-02-26T05:09:59.428Z,18.90
2019-02-26T05:12:30.971Z,21.30
2019-02-26T05:14:59.479Z,18.93
2019-02-26T05:17:30.806Z,18.43
2019-02-26T05:19:59.527Z,19.30
2019-02-26T05:22:31.036Z,18.67
2019-02-26T05:24:59.714Z,18.93
2019-02-26T05:27:30.385Z,19.20
2019-02-26T05:29:59.606Z,18.47
2019-02-26T05:32:30.941Z,18.33
2019-02-26T05:34:59.714Z,18.07
2019-02-26T05:37:32.606Z,18.40
2019-02-26T05:40:01.261Z,18.67
2019-02-26T05:42:30.457Z,18.63
2019-02-26T05:45:02.799Z,19.17
2019-02-26T05:47:30.630Z,18.87
2019-02-26T05:50:02.249Z,18.83
2019-02-26T05:52:33.219Z,18.63
2019-02-26T05:55:01.981Z,18.40
2019-02-26T05:57:32.475Z,19.87
2019-02-26T06:00:02.397Z,18.67
2019-02-26T06:02:31.692Z,17.97
2019-02-26T06:05:02.474Z,19.23
2019-02-26T06:07:35.542Z,18.83
2019-02-26T06:10:02.971Z,18.70
2019-02-26T06:12:32.648Z,19.13
2019-02-26T06:15:05.868Z,18.93
2019-02-26T06:17:37.907Z,18.60
2019-02-26T06:20:26.162Z,18.10
2019-02-26T06:22:55.162Z,18.73
2019-02-26T06:25:24.781Z,19.30
2019-02-26T06:27:53.999Z,19.97
2019-02-26T06:30:27.577Z,18.67
2019-02-26T06:32:59.715Z,19.10
2019-02-26T06:35:28.004Z,19.60
2019-02-26T06:37:57.320Z,19.73
2019-02-26T06:40:26.507Z,19.67
2019-02-26T06:42:55.715Z,19.03
2019-02-26T06:45:24.903Z,18.23
2019-02-26T06:47:56.084Z,19.20
2019-02-26T06:50:25.016Z,18.50
2019-02-26T06:52:54.172Z,19.10
2019-02-26T06:55:23.379Z,17.53
2019-02-26T06:57:55.002Z,17.73
2019-02-26T07:00:25.285Z,18.00
2019-02-26T07:02:54.462Z,18.97
2019-02-26T07:05:24.600Z,17.77
2019-02-26T07:07:55.059Z,17.33
2019-02-26T07:10:26.731Z,18.37
2019-02-26T07:12:55.938Z,19.07
2019-02-26T07:15:28.795Z,20.00
2019-02-26T07:18:00.061Z,21.97
2019-02-26T07:20:33.855Z,18.20
2019-02-26T07:22:58.014Z,19.03
2019-02-26T07:25:27.273Z,17.60
2019-02-26T07:27:58.767Z,20.10
2019-02-26T07:30:29.642Z,25.10
2019-02-26T07:32:58.813Z,23.90
2019-02-26T07:35:28.825Z,22.20
2019-02-26T07:37:59.518Z,22.37
2019-02-26T07:40:30.517Z,21.80
2019-02-26T07:43:04.932Z,20.47
2019-02-26T07:45:32.335Z,21.43
2019-02-26T07:48:05.615Z,21.20
2019-02-26T07:50:38.276Z,21.13
2019-02-26T07:53:05.897Z,21.07
2019-02-26T07:55:35.881Z,20.23
2019-02-26T07:58:06.846Z,20.63
2019-02-26T08:00:37.752Z,21.10
2019-02-26T08:03:07.898Z,21.00
2019-02-26T08:05:37.076Z,21.30
2019-02-26T08:08:06.253Z,22.03
2019-02-26T08:10:39.431Z,23.03
2019-02-26T08:13:08.009Z,22.10
2019-02-26T08:15:37.629Z,22.37
2019-02-26T08:18:08.164Z,21.13
2019-02-26T08:20:39.702Z,21.13
2019-02-26T08:23:08.225Z,22.07
2019-02-26T08:25:37.417Z,21.83
2019-02-26T08:28:08.435Z,22.30
2019-02-26T08:30:40.200Z,21.73
2019-02-26T08:33:08.817Z,20.63
2019-02-26T08:35:38.005Z,23.20
2019-02-26T08:38:07.198Z,23.80
2019-02-26T08:40:36.989Z,24.50
2019-02-26T08:43:06.193Z,23.90
2019-02-26T08:45:35.537Z,24.03
2019-02-26T08:48:04.693Z,25.27
2019-02-26T08:50:36.162Z,23.93
2019-02-26T08:53:05.268Z,24.17
2019-02-26T08:55:34.457Z,24.87
2019-02-26T08:58:03.696Z,24.50
2019-02-26T09:00:34.340Z,23.90
2019-02-26T09:03:03.620Z,23.93
2019-02-26T09:05:34.502Z,24.43
2019-02-26T09:08:05.650Z,24.00
2019-02-26T09:10:38.286Z,26.20
2019-02-26T09:13:09.328Z,23.93
2019-02-26T09:15:40.328Z,24.47
2019-02-26T09:18:09.021Z,24.30
2019-02-26T09:20:38.169Z,24.77
2019-02-26T09:23:07.388Z,23.83
2019-02-26T09:25:36.525Z,24.67
2019-02-26T09:28:05.734Z,23.43
2019-02-26T09:30:35.919Z,23.93
2019-02-26T09:33:08.328Z,24.73
2019-02-26T09:35:37.057Z,24.77
2019-02-26T09:38:06.275Z,24.70
2019-02-26T09:40:37.711Z,24.43
2019-02-26T09:43:06.882Z,24.50
2019-02-26T09:45:36.109Z,24.20
2019-02-26T09:48:05.443Z,24.43
2019-02-26T09:50:36.761Z,25.83
2019-02-26T09:53:05.940Z,25.23
2019-02-26T09:55:35.135Z,24.13
2019-02-26T09:58:04.382Z,23.70
2019-02-26T10:00:33.603Z,24.77
2019-02-26T10:03:03.474Z,24.27
2019-02-26T10:05:34.082Z,24.00
2019-02-26T10:08:05.266Z,25.57
2019-02-26T10:10:36.943Z,24.03
2019-02-26T10:13:05.408Z,24.40
2019-02-26T10:15:35.467Z,23.23
2019-02-26T10:18:07.250Z,25.93
2019-02-26T10:20:36.420Z,25.17
2019-02-26T10:23:06.376Z,26.63
2019-02-26T10:25:38.690Z,25.33
2019-02-26T10:28:09.662Z,24.93
2019-02-26T10:30:41.634Z,23.93
2019-02-26T10:33:10.289Z,23.33
2019-02-26T10:35:42.037Z,23.00
2019-02-26T10:38:11.514Z,24.33
2019-02-26T10:40:53.429Z,23.60
2019-02-26T10:43:11.974Z,24.07
2019-02-26T10:45:42.396Z,23.27
2019-02-26T10:48:13.771Z,23.87
2019-02-26T10:50:46.974Z,24.77
2019-02-26T10:53:16.351Z,23.87
2019-02-26T10:55:45.022Z,22.17
2019-02-26T10:59:18.772Z,22.23
2019-02-26T11:01:49.014Z,22.80
2019-02-26T11:05:27.766Z,22.37
2019-02-26T11:07:47.022Z,22.13
2019-02-26T11:10:20.974Z,22.20
2019-02-26T11:12:50.519Z,22.03
2019-02-26T11:15:22.019Z,21.73
2019-02-26T11:17:53.191Z,21.93
2019-02-26T11:20:24.225Z,21.40
2019-02-26T11:22:52.934Z,22.63
2019-02-26T11:25:24.194Z,22.37
2019-02-26T11:27:53.120Z,23.23
2019-02-26T11:30:28.540Z,22.57
2019-02-26T11:32:58.705Z,22.93
2019-02-26T11:35:27.632Z,23.57
2019-02-26T11:37:57.740Z,22.63
2019-02-26T11:40:30.507Z,22.70
2019-02-26T11:43:00.190Z,22.97
2019-02-26T11:45:29.634Z,23.33
2019-02-26T11:48:00.997Z,22.87
2019-02-26T11:50:29.787Z,23.13
2019-02-26T11:52:59.281Z,24.37
2019-02-26T11:55:31.388Z,25.57
2019-02-26T11:57:59.465Z,23.97
2019-02-26T12:00:42.069Z,23.73
2019-02-26T12:03:33.350Z,22.97
2019-02-26T12:05:56.718Z,23.07
2019-02-26T12:08:32.759Z,23.07
2019-02-26T12:11:03.973Z,23.07
2019-02-26T12:13:33.091Z,22.47
2019-02-26T12:16:02.280Z,22.53
2019-02-26T12:18:31.432Z,23.33
2019-02-26T12:21:02.703Z,22.67
2019-02-26T12:23:31.516Z,21.00
2019-02-26T12:26:02.082Z,22.20
2019-02-26T12:28:32.430Z,22.60
2019-02-26T12:31:04.289Z,22.93
2019-02-26T12:33:34.414Z,23.57
2019-02-26T12:36:05.265Z,23.13
2019-02-26T12:38:36.656Z,21.60
2019-02-26T12:41:08.601Z,23.03
2019-02-26T12:43:37.457Z,23.20
2019-02-26T12:46:08.483Z,22.33
2019-02-26T12:48:41.867Z,20.93
2019-02-26T12:51:08.991Z,18.77
2019-02-26T12:53:49.952Z,18.43
2019-02-26T12:56:20.571Z,17.63
2019-02-26T12:58:52.025Z,17.40
2019-02-26T13:01:19.826Z,15.77
2019-02-26T13:03:54.030Z,14.90
2019-02-26T13:06:22.839Z,16.70
2019-02-26T13:08:50.924Z,19.23
2019-02-26T13:11:23.341Z,19.47
2019-02-26T13:13:53.270Z,18.97
2019-02-26T13:16:22.608Z,20.27
2019-02-26T13:18:56.615Z,20.47
2019-02-26T13:21:23.068Z,20.63
2019-02-26T13:23:52.220Z,19.87
2019-02-26T13:26:22.551Z,18.93
2019-02-26T13:28:52.997Z,17.83
2019-02-26T13:31:22.981Z,13.93
2019-02-26T13:33:52.358Z,16.90
2019-02-26T13:36:21.866Z,17.63
2019-02-26T13:38:51.043Z,16.90
2019-02-26T13:41:29.273Z,15.70
2019-02-26T13:43:51.777Z,14.47
2019-02-26T13:46:21.123Z,13.47
2019-02-26T13:48:50.398Z,13.03
2019-02-26T13:51:19.722Z,13.70
2019-02-26T13:53:48.940Z,14.57
2019-02-26T13:56:18.184Z,17.07
2019-02-26T13:58:47.358Z,17.10
2019-02-26T14:01:16.664Z,16.20
2019-02-26T14:03:45.984Z,15.13
2019-02-26T14:06:15.254Z,16.53
2019-02-26T14:08:44.465Z,17.13
2019-02-26T14:11:13.764Z,16.60
2019-02-26T14:13:43.032Z,14.10
2019-02-26T14:16:12.249Z,14.80
2019-02-26T14:18:41.453Z,15.40
2019-02-26T14:21:10.649Z,15.97
2019-02-26T14:23:39.845Z,15.53
2019-02-26T14:26:09.165Z,16.40
2019-02-26T14:28:38.493Z,16.67
2019-02-26T14:31:07.654Z,17.07
2019-02-26T14:33:37.131Z,16.10
2019-02-26T14:36:06.290Z,16.73
2019-02-26T14:38:35.667Z,16.63
2019-02-26T14:41:05.240Z,16.13
2019-02-26T14:43:34.352Z,15.43
2019-02-26T14:46:03.596Z,16.00
2019-02-26T14:48:32.768Z,15.40
2019-02-26T14:51:01.932Z,15.40
2019-02-26T14:53:31.221Z,15.53
2019-02-26T14:56:00.386Z,15.43
2019-02-26T14:58:29.637Z,15.87
2019-02-26T15:01:00.401Z,15.67
2019-02-26T15:03:29.885Z,15.17
2019-02-26T15:05:59.187Z,14.20
2019-02-26T15:08:28.551Z,16.37
2019-02-26T15:10:57.858Z,15.83
2019-02-26T15:13:27.494Z,14.73
2019-02-26T15:15:56.675Z,14.10
2019-02-26T15:18:25.940Z,15.27
2019-02-26T15:20:55.150Z,13.57
2019-02-26T15:23:24.609Z,16.50
2019-02-26T15:25:53.812Z,17.93
2019-02-26T15:28:22.979Z,17.73
2019-02-26T15:30:52.178Z,17.07
2019-02-26T15:33:21.498Z,17.60
2019-02-26T15:35:50.652Z,16.43
2019-02-26T15:38:19.952Z,17.13
2019-02-26T15:40:51.161Z,16.80
2019-02-26T15:43:20.036Z,17.80
2019-02-26T15:45:51.963Z,17.50
2019-02-26T15:48:20.242Z,17.07
2019-02-26T15:50:49.417Z,15.90
2019-02-26T15:53:18.641Z,16.13
2019-02-26T15:55:47.831Z,16.37
2019-02-26T15:58:17.038Z,16.13
2019-02-26T16:00:46.309Z,16.00
2019-02-26T16:03:15.660Z,16.03
2019-02-26T16:05:44.906Z,14.87
2019-02-26T16:08:14.205Z,16.00
2019-02-26T16:10:43.666Z,17.27
2019-02-26T16:13:12.930Z,16.70
2019-02-26T16:15:42.262Z,16.00
2019-02-26T16:18:11.476Z,16.73
2019-02-26T16:20:40.853Z,17.53
2019-02-26T16:23:10.062Z,16.90
2019-02-26T16:25:39.280Z,16.40
2019-02-26T16:28:08.573Z,17.00
2019-02-26T16:30:38.119Z,17.23
2019-02-26T16:33:07.316Z,17.20
2019-02-26T16:35:36.467Z,16.57
2019-02-26T16:38:05.853Z,17.67
2019-02-26T16:40:35.003Z,18.20
2019-02-26T16:43:04.480Z,18.43
2019-02-26T16:45:35.146Z,17.33
2019-02-26T16:48:04.522Z,16.90
2019-02-26T16:50:33.962Z,17.43
2019-02-26T16:53:03.315Z,17.93
2019-02-26T16:55:32.713Z,18.33
2019-02-26T16:58:03.256Z,19.40
2019-02-26T17:00:32.712Z,18.63
2019-02-26T17:03:02.721Z,17.47
2019-02-26T17:05:32.049Z,17.93
2019-02-26T17:08:01.747Z,18.30
2019-02-26T17:10:31.249Z,18.30
2019-02-26T17:13:02.332Z,18.83
2019-02-26T17:15:31.365Z,19.17
2019-02-26T17:18:00.643Z,20.87
2019-02-26T17:20:29.962Z,20.40
2019-02-26T17:22:59.299Z,19.40
2019-02-26T17:25:29.018Z,19.90
2019-02-26T17:27:58.681Z,20.37
2019-02-26T17:30:27.960Z,23.67
2019-02-26T17:32:57.130Z,25.53
2019-02-26T17:35:28.586Z,23.40
2019-02-26T17:37:57.301Z,25.53
2019-02-26T17:40:26.564Z,27.27
2019-02-26T17:42:55.756Z,28.90
2019-02-26T17:45:25.057Z,27.20
2019-02-26T17:47:56.810Z,25.03
2019-02-26T17:50:28.374Z,23.77
2019-02-26T17:52:57.833Z,25.70
2019-02-26T17:55:27.276Z,24.47
2019-02-26T17:57:56.483Z,23.60
2019-02-26T18:00:26.410Z,23.13
2019-02-26T18:02:55.570Z,24.20
2019-02-26T18:05:24.832Z,23.07
2019-02-26T18:07:53.990Z,24.77
2019-02-26T18:10:23.304Z,25.13
2019-02-26T18:12:53.909Z,23.63
2019-02-26T18:15:23.439Z,23.17
2019-02-26T18:17:52.677Z,23.20
2019-02-26T18:20:21.916Z,27.77
2019-02-26T18:22:51.085Z,26.20
2019-02-26T18:25:20.310Z,30.57
2019-02-26T18:27:49.808Z,33.20
2019-02-26T18:30:20.884Z,44.60
2019-02-26T18:32:50.726Z,78.97
2019-02-26T18:35:21.171Z,63.63
2019-02-26T18:37:50.504Z,63.13
2019-02-26T18:40:20.022Z,51.63
2019-02-26T18:42:49.206Z,49.37
2019-02-26T18:45:20.317Z,49.17
2019-02-26T18:47:49.548Z,47.23
2019-02-26T18:50:19.295Z,43.63
2019-02-26T18:52:48.575Z,40.03
2019-02-26T18:55:18.683Z,29.40
2019-02-26T18:57:48.104Z,30.23
2019-02-26T19:00:19.700Z,28.07
2019-02-26T19:02:49.073Z,27.77
2019-02-26T19:05:20.812Z,25.43
2019-02-26T19:07:49.580Z,26.17
2019-02-26T19:10:20.865Z,28.23
2019-02-26T19:12:50.301Z,26.43
2019-02-26T19:15:19.969Z,25.83
2019-02-26T19:17:50.669Z,25.23
2019-02-26T19:20:22.412Z,25.50
2019-02-26T19:22:52.198Z,23.90
2019-02-26T19:25:21.466Z,25.23
2019-02-26T19:27:53.189Z,25.50
2019-02-26T19:30:23.575Z,24.67
2019-02-26T19:32:52.893Z,24.50
2019-02-26T19:35:22.161Z,24.30
2019-02-26T19:37:55.123Z,23.97
2019-02-26T19:40:26.937Z,23.70
2019-02-26T19:42:56.410Z,25.13
2019-02-26T19:45:25.906Z,25.13
2019-02-26T19:47:56.076Z,25.50
2019-02-26T19:50:26.053Z,24.47
2019-02-26T19:52:57.160Z,23.10
2019-02-26T19:55:28.939Z,21.47
2019-02-26T19:57:58.209Z,22.67
2019-02-26T20:00:27.505Z,23.60
2019-02-26T20:02:56.763Z,21.67
2019-02-26T20:05:26.056Z,21.50
2019-02-26T20:07:56.798Z,23.17
2019-02-26T20:10:26.050Z,20.77
2019-02-26T20:12:55.278Z,21.40
2019-02-26T20:15:24.586Z,21.20
2019-02-26T20:17:55.463Z,21.53
2019-02-26T20:20:24.736Z,23.00
2019-02-26T20:22:54.019Z,22.83
2019-02-26T20:25:23.750Z,22.50
2019-02-26T20:27:54.783Z,22.87
2019-02-26T20:30:24.407Z,22.60
2019-02-26T20:32:55.953Z,23.40
2019-02-26T20:35:25.324Z,24.50
2019-02-26T20:37:58.634Z,22.67
2019-02-26T20:40:28.444Z,24.80
2019-02-26T20:43:01.284Z,26.73
2019-02-26T20:45:28.880Z,26.37
2019-02-26T20:48:03.858Z,25.00
2019-02-26T20:50:31.856Z,25.37
2019-02-26T20:53:05.590Z,25.00
2019-02-26T20:55:35.303Z,22.60
2019-02-26T20:58:05.363Z,25.47
2019-02-26T21:00:34.801Z,25.07
2019-02-26T21:03:04.258Z,22.47
2019-02-26T21:05:34.658Z,21.57
2019-02-26T21:08:05.224Z,23.00
2019-02-26T21:10:34.543Z,21.83
2019-02-26T21:13:04.052Z,24.77
2019-02-26T21:15:33.088Z,23.27
2019-02-26T21:18:02.957Z,23.53
2019-02-26T21:20:32.187Z,24.43
2019-02-26T21:23:02.554Z,25.93
2019-02-26T21:25:31.831Z,27.33
2019-02-26T21:28:05.376Z,27.97
2019-02-26T21:30:34.842Z,28.90
2019-02-26T21:33:04.099Z,27.73
2019-02-26T21:35:33.300Z,29.17
2019-02-26T21:38:05.738Z,27.87
2019-02-26T21:40:37.359Z,24.63
2019-02-26T21:43:07.651Z,24.07
2019-02-26T21:45:37.208Z,25.00
2019-02-26T21:48:06.530Z,23.83
2019-02-26T21:50:35.787Z,22.37
2019-02-26T21:53:04.967Z,21.03
2019-02-26T21:55:43.884Z,20.70
2019-02-26T21:58:05.181Z,20.77
2019-02-26T22:00:36.730Z,20.80
2019-02-26T22:03:07.899Z,20.60
2019-02-26T22:05:37.916Z,19.90
2019-02-26T22:08:07.536Z,20.33
2019-02-26T22:10:36.830Z,21.10
2019-02-26T22:13:06.036Z,20.27
2019-02-26T22:15:36.257Z,21.13
2019-02-26T22:18:06.019Z,20.17
2019-02-26T22:20:36.488Z,23.40
2019-02-26T22:23:07.282Z,21.07
2019-02-26T22:25:37.482Z,24.10
2019-02-26T22:28:08.727Z,23.50
2019-02-26T22:30:37.617Z,21.83
2019-02-26T22:33:07.985Z,21.80
2019-02-26T22:35:37.714Z,21.27
2019-02-26T22:38:06.943Z,20.47
2019-02-26T22:40:36.175Z,20.67
2019-02-26T22:43:05.455Z,19.00
2019-02-26T22:45:34.706Z,19.03
2019-02-26T22:48:05.580Z,19.10
2019-02-26T22:50:34.732Z,19.70
2019-02-26T22:53:04.591Z,19.67
2019-02-26T22:55:33.856Z,20.73
2019-02-26T22:58:03.392Z,19.83
2019-02-26T23:01:02.734Z,20.40
2019-02-26T23:03:32.201Z,21.47
2019-02-26T23:06:01.360Z,21.47
2019-02-26T23:08:30.535Z,20.80
2019-02-26T23:10:59.825Z,20.27
2019-02-26T23:13:31.818Z,20.77
2019-02-26T23:16:00.008Z,21.67
2019-02-26T23:18:30.952Z,22.33
2019-02-26T23:21:00.127Z,21.17
2019-02-26T23:23:29.352Z,21.17
2019-02-26T23:25:58.522Z,21.07
2019-02-26T23:28:27.736Z,21.30
2019-02-26T23:30:59.707Z,20.27
2019-02-26T23:33:28.514Z,19.53
2019-02-26T23:35:57.966Z,19.57
2019-02-26T23:38:27.155Z,19.47
2019-02-26T23:40:58.158Z,18.27
2019-02-26T23:43:27.476Z,20.77
2019-02-26T23:45:57.539Z,20.03
2019-02-26T23:48:26.844Z,19.50
2019-02-26T23:50:56.032Z,19.57
2019-02-26T23:53:25.231Z,20.27
2019-02-26T23:55:54.428Z,19.43
2019-02-26T23:58:23.567Z,18.53
